KIXD

New Century Aircenter Airport

Olathe, Kansas, USA
KIXD 212332Z 2200/2224 14016G28KT P6SM OVC250 FM220700 14016KT P6SM BKN025 WS020/17045KT FM221000 14015KT 6SM -DZ OVC009 WS020/18040KT FM221400 14013KT 3SM -RA BR OVC006 WS020/18040KT FM221800 15010KT 3/4SM -RA BR OVC003 WS020/19040KT FM222000 22008KT 1SM -RA BR OVC003 FM222200 28013G23KT 3SM -DZ OVC007
Issued Valid From Valid To
Jan-21 @ 23:32 UTC
(53 minutes ago)
Jan-22 @ 00:00 UTC
(25 minutes ago)
Jan-23 @ 00:00 UTC
(in 24 hours)
Jan-22 @ 00:00 to Jan-22 @ 07:00
KIXD 212332Z 2200/2224 14016G28KT P6SM OVC250
Wind Visibility Clouds
140° at 16 knots
 Gusting to 28 knots
Greater than 6 miles
  • Overcast at 25,000' AGL
From Jan-22 @ 07:00 to Jan-22 @ 10:00
FM220700 14016KT P6SM BKN025 WS020/17045KT
Wind Visibility Clouds
140° at 16 knots
 Wind shear 2,000' AGL from 170° at 45 knots
Greater than 6 miles
  • Broken at 2,500' AGL
From Jan-22 @ 10:00 to Jan-22 @ 14:00
FM221000 14015KT 6SM -DZ OVC009 WS020/18040KT
Wind Visibility Clouds Conditions
140° at 15 knots
 Wind shear 2,000' AGL from 180° at 40 knots
6 miles
  • Overcast at 900' AGL
  • Light Drizzle
From Jan-22 @ 14:00 to Jan-22 @ 18:00
FM221400 14013KT 3SM -RA BR OVC006 WS020/18040KT
Wind Visibility Clouds Conditions
140° at 13 knots
 Wind shear 2,000' AGL from 180° at 40 knots
3 miles
  • Overcast at 600' AGL
  • Light Rain
  • Mist
From Jan-22 @ 18:00 to Jan-22 @ 20:00
FM221800 15010KT 3/4SM -RA BR OVC003 WS020/19040KT
Wind Visibility Clouds Conditions
150° at 10 knots
 Wind shear 2,000' AGL from 190° at 40 knots
3/4 miles
  • Overcast at 300' AGL
  • Light Rain
  • Mist
From Jan-22 @ 20:00 to Jan-22 @ 22:00
FM222000 22008KT 1SM -RA BR OVC003
Wind Visibility Clouds Conditions
220° at 8 knots 1 miles
  • Overcast at 300' AGL
  • Light Rain
  • Mist
From Jan-22 @ 22:00 to Jan-23 @ 00:00
FM222200 28013G23KT 3SM -DZ OVC007
Wind Visibility Clouds Conditions
280° at 13 knots
 Gusting to 23 knots
3 miles
  • Overcast at 700' AGL
  • Light Drizzle
KIXD 212332Z 2200/2224 14016G28KT P6SM OVC250 FM220700 14016KT P6SM BKN025 WS020/17045KT FM221000 14015KT 6SM -DZ OVC009 WS020/18040KT FM221400 14013KT 3SM -RA BR OVC006 WS020/18040KT FM221800 15010KT 3/4SM -RA BR OVC003 WS020/19040KT FM222000 22008KT 1SM -RA BR OVC003 FM222200 28013G23KT 3SM -DZ OVC007
Issued Jan-21 @ 23:32 UTC
(53 minutes ago)
Valid From Jan-22 @ 00:00 UTC
(25 minutes ago)
Valid To Jan-23 @ 00:00 UTC
(in 24 hours)
Jan-22 @ 00:00 - Jan-22 @ 07:00
Wind Visibility
140° at 16 knots
 Gusting to 28 knots
Greater than 6 miles
Clouds
  • Overcast at 25,000' AGL
From Jan-22 @ 07:00 - Jan-22 @ 10:00
Wind Visibility
140° at 16 knots Greater than 6 miles
Clouds
  • Broken at 2,500' AGL
From Jan-22 @ 10:00 - Jan-22 @ 14:00
Wind Visibility
140° at 15 knots 6 miles
Clouds
  • Overcast at 900' AGL
Conditions
  • Light Drizzle
From Jan-22 @ 14:00 - Jan-22 @ 18:00
Wind Visibility
140° at 13 knots 3 miles
Clouds
  • Overcast at 600' AGL
Conditions
  • Light Rain
  • Mist
From Jan-22 @ 18:00 - Jan-22 @ 20:00
Wind Visibility
150° at 10 knots 3/4 miles
Clouds
  • Overcast at 300' AGL
Conditions
  • Light Rain
  • Mist
From Jan-22 @ 20:00 - Jan-22 @ 22:00
Wind Visibility
220° at 8 knots 1 miles
Clouds
  • Overcast at 300' AGL
Conditions
  • Light Rain
  • Mist
From Jan-22 @ 22:00 - Jan-23 @ 00:00
Wind Visibility
280° at 13 knots
 Gusting to 23 knots
3 miles
Clouds
  • Overcast at 700' AGL
Conditions
  • Light Drizzle